Погода Винницана неделю

Винницкая область, Украина

19 - 25 июня
  • 19июня
    Сегодня
    +19°
    +31°
    Облачно с прояснениями
    ВремяПогодаТемператураВлажностьДавлениеВетер, м/сВероятность осадков
    00:00Ясно и безоблачно+19°C80 %743 мм1.6 м/с2 %
    03:00Небольшая облачность+18°C76 %743 мм0.7 м/с2 %
    06:00Практически безоблачно+17°C86 %743 мм1.6 м/с2 %
    09:00Облачно с прояснениями+23°C65 %743 мм2.1 м/с2 %
    12:00Практически безоблачно+29°C48 %743 мм3.5 м/с2 %
    15:00Облачно с прояснениями+30°C45 %742 мм4.1 м/с2 %
    18:00Облачно с прояснениями+30°C52 %741 мм3.9 м/с3 %
    21:00Практически безоблачно+26°C68 %740 мм3.2 м/с2 %
  • 20июня
    Четверг
    +11°
    +24°
    Ясно и безоблачно
    ВремяПогодаТемператураВлажностьДавлениеВетер, м/сВероятность осадков
    00:00Небольшая облачность+22°C74 %740 мм3.5 м/с2 %
    03:00Ясно и безоблачно+21°C75 %739 мм3.6 м/с2 %
    06:00Ясно и безоблачно+19°C81 %738 мм3.6 м/с2 %
    09:00Пасмурно, сплошная облачность+22°C74 %740 мм7.2 м/с20 %
    12:00Ясно и безоблачно+21°C56 %742 мм6.1 м/с29 %
    15:00Ясно и безоблачно+23°C46 %743 мм5.7 м/с3 %
    18:00Ясно и безоблачно+23°C47 %743 мм4.9 м/с2 %
    21:00Ясно и безоблачно+19°C60 %744 мм2.1 м/с2 %
  • 21июня
    Пятница
    +13°
    +26°
    Ясно и безоблачно
    ВремяПогодаТемператураВлажностьДавлениеВетер, м/сВероятность осадков
    00:00Ясно и безоблачно+14°C77 %744 мм2.0 м/с2 %
    03:00Небольшая облачность+12°C83 %744 мм1.9 м/с2 %
    06:00Облачно с прояснениями+12°C89 %744 мм1.4 м/с2 %
    09:00Облачно с прояснениями+19°C57 %745 мм1.1 м/с2 %
    12:00Ясно и безоблачно+23°C48 %744 мм1.5 м/с2 %
    15:00Ясно и безоблачно+25°C44 %743 мм1.6 м/с2 %
    18:00Облачно с прояснениями+26°C43 %742 мм1.6 м/с2 %
    21:00Небольшая облачность+21°C67 %741 мм1.8 м/с2 %
  • 22июня
    Суббота
    +18°
    +30°
    Ясно и безоблачно
    ВремяПогодаТемператураВлажностьДавлениеВетер, м/сВероятность осадков
    00:00Ясно и безоблачно+17°C73 %741 мм1.6 м/с2 %
    03:00Ясно и безоблачно+15°C82 %740 мм1.8 м/с2 %
    06:00Ясно и безоблачно+14°C81 %740 мм1.5 м/с2 %
    09:00Небольшая облачность+21°C58 %740 мм1.4 м/с2 %
    12:00Облачно с прояснениями+26°C43 %739 мм2.5 м/с2 %
    15:00Ясно и безоблачно+29°C40 %739 мм2.4 м/с2 %
    18:00Небольшая облачность+29°C42 %737 мм2.8 м/с2 %
    21:00Облачно с прояснениями+25°C59 %737 мм2.1 м/с6 %
  • 23июня
    Воскресенье
    +15°
    +30°
    Облачно с прояснениями
    ВремяПогодаТемператураВлажностьДавлениеВетер, м/сВероятность осадков
    00:00Практически безоблачно+22°C63 %737 мм3.1 м/с4 %
    03:00Облачно с прояснениями+20°C68 %737 мм2.6 м/с8 %
    06:00Ясно и безоблачно+19°C77 %737 мм1.8 м/с13 %
    09:00Небольшая облачность+22°C78 %738 мм3.7 м/с8 %
    12:00Пасмурно, сплошная облачность+27°C64 %739 мм2.6 м/с16 %
    15:00Облачно с прояснениями+29°C59 %739 мм2.7 м/с32 %
    18:00Облачно с прояснениями+29°C56 %739 мм3.0 м/с38 %
    21:00Небольшая облачность+25°C72 %739 мм1.8 м/с23 %
Мы используем cookies
Соглашаюсь